createdAt,value
2022-12-02T03:59:30.070Z,1021.26
2022-12-02T04:00:30.177Z,1021.26
2022-12-02T04:01:31.316Z,1021.22
2022-12-02T04:02:30.506Z,1021.28
2022-12-02T04:03:30.567Z,1021.21
2022-12-02T04:04:30.722Z,1021.28
2022-12-02T04:05:30.897Z,1021.20
2022-12-02T04:06:30.986Z,1021.24
2022-12-02T04:07:31.155Z,1021.27
2022-12-02T04:08:31.209Z,1021.26
2022-12-02T04:09:31.369Z,1021.23
2022-12-02T04:10:31.517Z,1021.24
2022-12-02T04:11:31.672Z,1021.28
2022-12-02T04:12:31.832Z,1021.27
2022-12-02T04:13:31.906Z,1021.28
2022-12-02T04:14:32.054Z,1021.27
2022-12-02T04:15:32.247Z,1021.24
2022-12-02T04:16:32.355Z,1021.23
2022-12-02T04:17:32.505Z,1021.26
2022-12-02T04:18:32.675Z,1021.32
2022-12-02T04:19:32.797Z,1021.22
2022-12-02T04:20:32.896Z,1021.23
2022-12-02T04:21:34.017Z,1021.20
2022-12-02T04:22:33.171Z,1021.21
2022-12-02T04:23:33.306Z,1021.22
2022-12-02T04:24:33.464Z,1021.19
2022-12-02T04:25:33.605Z,1021.20
2022-12-02T04:26:34.630Z,1021.19
2022-12-02T04:27:33.855Z,1021.19
2022-12-02T04:28:34.014Z,1021.14
2022-12-02T04:29:34.105Z,1021.14
2022-12-02T04:30:34.283Z,1021.18
2022-12-02T04:31:35.336Z,1021.18
2022-12-02T04:32:34.494Z,1021.13
2022-12-02T04:33:34.652Z,1021.17
2022-12-02T04:34:34.758Z,1021.15
2022-12-02T04:35:34.894Z,1021.09
2022-12-02T04:36:35.024Z,1021.16
2022-12-02T04:37:35.162Z,1021.14
2022-12-02T04:38:35.332Z,1021.13
2022-12-02T04:39:35.401Z,1021.11
2022-12-02T04:40:35.562Z,1021.10
2022-12-02T04:41:35.691Z,1021.08
2022-12-02T04:42:35.840Z,1021.14
2022-12-02T04:43:35.981Z,1021.05
2022-12-02T04:44:36.138Z,1021.04
2022-12-02T04:45:36.271Z,1021.03
2022-12-02T04:46:36.458Z,1021.05
2022-12-02T04:47:36.514Z,1021.03
2022-12-02T04:48:36.681Z,1021.05
2022-12-02T04:49:36.810Z,1021.06
2022-12-02T04:50:36.949Z,1021.04
2022-12-02T04:51:38.057Z,1021.05
2022-12-02T04:52:37.219Z,1021.04
2022-12-02T04:53:37.353Z,1021.03
2022-12-02T04:54:37.528Z,1021.05
2022-12-02T04:55:37.613Z,1021.00
2022-12-02T04:56:37.742Z,1021.05
2022-12-02T04:57:37.878Z,1021.06
2022-12-02T04:58:38.009Z,1020.99
2022-12-02T04:59:38.159Z,1020.99
2022-12-02T05:00:38.288Z,1021.02
2022-12-02T05:01:38.446Z,1021.06
2022-12-02T05:02:38.605Z,1021.01
2022-12-02T05:03:38.744Z,1021.02
2022-12-02T05:04:40.438Z,1021.03
2022-12-02T05:05:38.968Z,1021.08
2022-12-02T05:06:39.098Z,1021.01
2022-12-02T05:07:39.315Z,1021.01
2022-12-02T05:08:39.396Z,1021.07
2022-12-02T05:09:39.516Z,1021.03
2022-12-02T05:10:39.674Z,1020.96
2022-12-02T05:11:39.828Z,1021.00
2022-12-02T05:12:39.969Z,1020.96
2022-12-02T05:13:40.096Z,1020.95
2022-12-02T05:14:40.238Z,1021.00
2022-12-02T05:15:40.437Z,1020.94
2022-12-02T05:16:40.536Z,1020.99
2022-12-02T05:17:42.321Z,1020.96
2022-12-02T05:18:40.812Z,1021.06
2022-12-02T05:19:40.925Z,1021.04
2022-12-02T05:20:41.088Z,1021.04
2022-12-02T05:21:41.225Z,1020.97
2022-12-02T05:22:41.365Z,1020.99
2022-12-02T05:23:41.514Z,1020.98
2022-12-02T05:24:41.654Z,1020.95
2022-12-02T05:25:41.786Z,1020.93
2022-12-02T05:26:41.934Z,1020.99
2022-12-02T05:27:42.065Z,1020.94
2022-12-02T05:28:42.184Z,1020.99
2022-12-02T05:29:42.325Z,1020.93
2022-12-02T05:30:42.463Z,1020.95
2022-12-02T05:31:42.726Z,1020.94
2022-12-02T05:32:42.752Z,1020.90
2022-12-02T05:33:42.873Z,1020.94
2022-12-02T05:34:42.997Z,1020.97
2022-12-02T05:35:43.145Z,1020.97
2022-12-02T05:36:43.264Z,1020.95
2022-12-02T05:37:43.422Z,1020.97
2022-12-02T05:38:43.553Z,1020.99
2022-12-02T05:39:43.685Z,1021.00
2022-12-02T05:40:43.842Z,1020.98
2022-12-02T05:41:43.977Z,1020.98
2022-12-02T05:42:44.124Z,1020.98
2022-12-02T05:43:44.251Z,1020.94
2022-12-02T05:44:44.391Z,1020.96
2022-12-02T05:45:44.542Z,1020.96
2022-12-02T05:46:44.758Z,1020.99
2022-12-02T05:47:44.823Z,1020.98
2022-12-02T05:48:44.941Z,1020.97
2022-12-02T05:49:45.080Z,1020.94
2022-12-02T05:50:45.211Z,1020.93
2022-12-02T05:51:49.058Z,1020.92
2022-12-02T05:52:46.520Z,1020.97
2022-12-02T05:53:45.681Z,1020.96
2022-12-02T05:54:45.760Z,1021.01
2022-12-02T05:55:45.978Z,1020.98
2022-12-02T05:56:46.064Z,1020.96
2022-12-02T05:57:46.232Z,1020.98
2022-12-02T05:58:46.361Z,1021.03
2022-12-02T05:59:46.510Z,1020.98
2022-12-02T06:00:46.640Z,1021.03
2022-12-02T06:01:46.915Z,1020.98
2022-12-02T06:02:47.004Z,1021.06
2022-12-02T06:03:47.119Z,1021.02
2022-12-02T06:04:47.188Z,1021.03
2022-12-02T06:05:47.312Z,1021.03
2022-12-02T06:06:47.459Z,1021.02
2022-12-02T06:07:47.672Z,1021.02
2022-12-02T06:08:47.709Z,1021.00
2022-12-02T06:09:47.858Z,1021.08
2022-12-02T06:10:47.989Z,1021.09
2022-12-02T06:11:48.156Z,1021.08
2022-12-02T06:12:48.300Z,1021.06
2022-12-02T06:13:48.448Z,1021.09
2022-12-02T06:14:48.748Z,1021.09
2022-12-02T06:15:48.726Z,1021.09
2022-12-02T06:16:48.936Z,1021.07
2022-12-02T06:17:48.968Z,1021.02
2022-12-02T06:18:49.108Z,1021.07
2022-12-02T06:19:49.226Z,1021.02
2022-12-02T06:20:49.358Z,1021.02
2022-12-02T06:21:49.506Z,1021.04
2022-12-02T06:22:49.636Z,1021.07
2022-12-02T06:23:49.821Z,1021.04
2022-12-02T06:24:50.418Z,1021.00
2022-12-02T06:25:50.032Z,1021.04
2022-12-02T06:26:50.175Z,1021.05
2022-12-02T06:27:50.315Z,1021.01
2022-12-02T06:28:52.418Z,1021.03
2022-12-02T06:29:50.598Z,1021.04
2022-12-02T06:30:50.775Z,1021.00
2022-12-02T06:31:50.947Z,1021.04
2022-12-02T06:32:51.064Z,1021.02
2022-12-02T06:33:51.217Z,1021.06
2022-12-02T06:34:51.612Z,1021.06
2022-12-02T06:35:51.495Z,1021.07
2022-12-02T06:36:51.714Z,1021.05
2022-12-02T06:37:51.817Z,1021.05
2022-12-02T06:38:51.953Z,1021.06
2022-12-02T06:40:19.783Z,1021.05
2022-12-02T06:40:53.322Z,1021.00
2022-12-02T06:41:52.393Z,1021.05
2022-12-02T06:42:52.432Z,1021.12
2022-12-02T06:43:52.563Z,1021.09
2022-12-02T06:44:53.936Z,1021.13
2022-12-02T06:45:52.976Z,1021.08
2022-12-02T06:46:52.992Z,1021.18
2022-12-02T06:47:53.062Z,1021.09
2022-12-02T06:48:53.332Z,1021.05
2022-12-02T06:49:53.294Z,1021.06
2022-12-02T06:50:53.444Z,1021.12
2022-12-02T06:51:53.833Z,1021.07
2022-12-02T06:52:58.262Z,1021.04
2022-12-02T06:53:54.121Z,1021.06
2022-12-02T06:54:54.273Z,1021.08
2022-12-02T06:55:54.175Z,1021.08
2022-12-02T06:56:54.427Z,1021.05
2022-12-02T06:57:59.754Z,1020.99
2022-12-02T06:58:54.677Z,1021.00
2022-12-02T06:59:54.721Z,1021.04
2022-12-02T07:00:55.934Z,1021.04
2022-12-02T07:01:55.924Z,1020.99
2022-12-02T07:02:56.662Z,1020.99
2022-12-02T07:03:55.359Z,1021.00
2022-12-02T07:04:57.010Z,1021.00
2022-12-02T07:05:57.943Z,1021.04
2022-12-02T07:06:57.648Z,1021.01
2022-12-02T07:07:56.908Z,1021.02
2022-12-02T07:08:56.990Z,1021.03
2022-12-02T07:09:56.405Z,1021.03
2022-12-02T07:10:56.296Z,1021.05
2022-12-02T07:12:00.258Z,1021.03
2022-12-02T07:12:56.869Z,1021.09
2022-12-02T07:13:56.791Z,1021.07
2022-12-02T07:14:56.845Z,1021.09
2022-12-02T07:15:58.875Z,1021.05
2022-12-02T07:16:58.269Z,1021.06
2022-12-02T07:17:57.119Z,1021.04
2022-12-02T07:19:01.501Z,1021.10
2022-12-02T07:19:58.392Z,1021.11
2022-12-02T07:20:58.477Z,1021.10
2022-12-02T07:21:57.759Z,1021.07
2022-12-02T07:22:57.828Z,1021.11
2022-12-02T07:24:02.808Z,1021.09
2022-12-02T07:24:58.057Z,1021.11
2022-12-02T07:25:58.960Z,1021.12
2022-12-02T07:27:03.984Z,1021.11
2022-12-02T07:28:03.619Z,1021.17
2022-12-02T07:29:14.480Z,1021.17
2022-12-02T07:30:02.420Z,1021.16
2022-12-02T07:30:59.028Z,1021.18
2022-12-02T07:32:06.586Z,1021.16
2022-12-02T07:33:01.880Z,1021.14
2022-12-02T07:33:59.336Z,1021.16
2022-12-02T07:35:02.655Z,1021.17
2022-12-02T07:35:59.556Z,1021.17
2022-12-02T07:36:59.793Z,1021.12
2022-12-02T07:38:01.215Z,1021.18
2022-12-02T07:39:07.495Z,1021.11
2022-12-02T07:40:01.054Z,1021.18
2022-12-02T07:41:00.265Z,1021.21
2022-12-02T07:42:01.105Z,1021.16
2022-12-02T07:43:07.262Z,1021.15
2022-12-02T07:44:04.342Z,1021.17
2022-12-02T07:45:00.647Z,1021.20
2022-12-02T07:46:01.012Z,1021.19
2022-12-02T07:47:01.391Z,1021.23
2022-12-02T07:48:02.287Z,1021.20
2022-12-02T07:49:01.807Z,1021.21
2022-12-02T07:50:01.536Z,1021.16
2022-12-02T07:51:01.691Z,1021.11
2022-12-02T07:52:02.669Z,1021.12
2022-12-02T07:53:01.969Z,1021.14
2022-12-02T07:54:04.579Z,1021.17
2022-12-02T07:55:02.985Z,1021.17
2022-12-02T07:56:02.457Z,1021.11
2022-12-02T07:57:03.268Z,1021.12
2022-12-02T07:58:03.612Z,1021.10
2022-12-02T07:59:12.408Z,1021.09
2022-12-02T08:00:03.690Z,1021.07
2022-12-02T08:01:03.786Z,1021.10
2022-12-02T08:02:03.838Z,1021.11
2022-12-02T08:03:06.541Z,1021.09
2022-12-02T08:04:07.294Z,1021.15
2022-12-02T08:05:03.526Z,1021.10
2022-12-02T08:06:04.019Z,1021.13
2022-12-02T08:07:10.547Z,1021.14
2022-12-02T08:08:03.975Z,1021.14
2022-12-02T08:09:03.911Z,1021.16
2022-12-02T08:10:04.796Z,1021.19
2022-12-02T08:11:04.120Z,1021.18
2022-12-02T08:12:04.220Z,1021.18
2022-12-02T08:13:04.557Z,1021.16
2022-12-02T08:14:04.509Z,1021.13
2022-12-02T08:15:06.900Z,1021.16
2022-12-02T08:16:13.095Z,1021.20
2022-12-02T08:17:43.731Z,1021.17
2022-12-02T08:18:31.951Z,1021.15
2022-12-02T08:19:07.023Z,1021.16
2022-12-02T08:20:31.763Z,1021.19
2022-12-02T08:21:08.818Z,1021.20
2022-12-02T08:22:07.207Z,1021.14
2022-12-02T08:23:07.453Z,1021.16
2022-12-02T08:24:05.904Z,1021.17
2022-12-02T08:25:06.438Z,1021.13
2022-12-02T08:26:06.179Z,1021.19
2022-12-02T08:27:06.319Z,1021.14
2022-12-02T08:28:09.049Z,1021.16
2022-12-02T08:29:06.528Z,1021.11
2022-12-02T08:30:07.955Z,1021.13
2022-12-02T08:31:07.480Z,1021.13
2022-12-02T08:32:06.997Z,1021.16
2022-12-02T08:33:11.776Z,1021.10
2022-12-02T08:34:24.823Z,1021.14
2022-12-02T08:35:09.036Z,1021.12
2022-12-02T08:36:08.335Z,1021.11
2022-12-02T08:37:08.035Z,1021.15
2022-12-02T08:38:22.653Z,1021.14
2022-12-02T08:39:09.554Z,1021.12
2022-12-02T08:40:09.435Z,1021.13
2022-12-02T08:41:13.602Z,1021.13
2022-12-02T08:42:09.309Z,1021.12
2022-12-02T08:43:08.513Z,1021.12
2022-12-02T08:44:08.814Z,1021.10
2022-12-02T08:45:10.658Z,1021.09
2022-12-02T08:46:08.901Z,1021.11
2022-12-02T08:47:08.995Z,1021.11
2022-12-02T08:48:09.185Z,1021.16
2022-12-02T08:49:09.286Z,1021.16
2022-12-02T08:50:10.670Z,1021.18
2022-12-02T08:51:09.554Z,1021.16
2022-12-02T08:52:14.652Z,1021.19
2022-12-02T08:53:16.984Z,1021.19
2022-12-02T08:54:15.911Z,1021.21
2022-12-02T08:55:10.360Z,1021.21
2022-12-02T08:56:10.279Z,1021.19
2022-12-02T08:57:10.241Z,1021.17
2022-12-02T08:58:15.088Z,1021.19
2022-12-02T08:59:11.382Z,1021.22
2022-12-02T09:00:11.815Z,1021.25
2022-12-02T09:01:11.209Z,1021.18
2022-12-02T09:02:12.182Z,1021.25
2022-12-02T09:03:13.766Z,1021.22
2022-12-02T09:04:11.165Z,1021.23
2022-12-02T09:05:11.456Z,1021.21
2022-12-02T09:06:11.378Z,1021.26
2022-12-02T09:07:11.483Z,1021.22
2022-12-02T09:08:12.051Z,1021.25
2022-12-02T09:09:18.625Z,1021.30
2022-12-02T09:10:12.096Z,1021.28
2022-12-02T09:11:18.013Z,1021.29
2022-12-02T09:12:12.184Z,1021.29
2022-12-02T09:13:12.341Z,1021.32
2022-12-02T09:14:18.622Z,1021.30
2022-12-02T09:15:13.511Z,1021.28
2022-12-02T09:16:12.781Z,1021.33
2022-12-02T09:17:14.982Z,1021.38
2022-12-02T09:18:14.790Z,1021.36
2022-12-02T09:19:13.423Z,1021.35
2022-12-02T09:20:13.394Z,1021.36
2022-12-02T09:21:15.611Z,1021.39
2022-12-02T09:22:15.492Z,1021.40
2022-12-02T09:23:13.671Z,1021.38
2022-12-02T09:24:18.493Z,1021.36
2022-12-02T09:25:18.976Z,1021.38
2022-12-02T09:26:14.166Z,1021.38
2022-12-02T09:27:14.449Z,1021.42
2022-12-02T09:28:22.189Z,1021.41
2022-12-02T09:29:36.190Z,1021.39
2022-12-02T09:31:37.661Z,1021.41
2022-12-02T09:32:31.882Z,1021.36
2022-12-02T09:33:33.915Z,1021.30
2022-12-02T09:34:32.732Z,1021.32
2022-12-02T09:35:35.284Z,1021.34
2022-12-02T09:36:32.644Z,1021.30
2022-12-02T09:37:32.550Z,1021.33
2022-12-02T09:38:32.723Z,1021.33
2022-12-02T09:39:37.197Z,1021.30
2022-12-02T09:40:34.936Z,1021.28
2022-12-02T09:41:39.924Z,1021.33
2022-12-02T09:42:33.392Z,1021.29
2022-12-02T09:43:33.506Z,1021.34
2022-12-02T09:44:35.590Z,1021.31
2022-12-02T09:45:33.703Z,1021.36
2022-12-02T09:46:33.762Z,1021.33
2022-12-02T09:47:34.757Z,1021.38
2022-12-02T09:48:36.158Z,1021.38
2022-12-02T09:49:34.295Z,1021.34
2022-12-02T09:50:34.628Z,1021.35
2022-12-02T09:51:39.991Z,1021.34
2022-12-02T09:52:34.534Z,1021.39
2022-12-02T09:53:34.777Z,1021.31
2022-12-02T09:54:41.390Z,1021.32
2022-12-02T09:55:35.727Z,1021.36
2022-12-02T09:56:35.650Z,1021.34
2022-12-02T09:57:40.379Z,1021.37
2022-12-02T09:58:35.980Z,1021.36
2022-12-02T09:59:36.366Z,1021.36
2022-12-02T10:00:36.259Z,1021.35
2022-12-02T10:01:35.837Z,1021.33
2022-12-02T10:02:35.958Z,1021.33
2022-12-02T10:13:50.455Z,1021.42
2022-12-02T10:14:51.920Z,1021.39
2022-12-02T10:15:50.583Z,1021.38
2022-12-02T10:16:52.449Z,1021.41
2022-12-02T10:17:59.711Z,1021.39
2022-12-02T10:18:53.879Z,1021.32
2022-12-02T10:19:54.924Z,1021.39
2022-12-02T10:20:51.298Z,1021.32
2022-12-02T10:21:55.373Z,1021.29
2022-12-02T10:22:53.304Z,1021.29
2022-12-02T10:23:52.981Z,1021.29
2022-12-02T10:24:52.572Z,1021.29
2022-12-02T10:25:51.984Z,1021.27
2022-12-02T10:26:58.603Z,1021.24
2022-12-02T10:27:53.181Z,1021.22
2022-12-02T10:28:52.359Z,1021.23
2022-12-02T10:29:53.163Z,1021.26
2022-12-02T10:30:54.008Z,1021.25
2022-12-02T10:31:52.718Z,1021.27
2022-12-02T10:32:59.353Z,1021.26
2022-12-02T10:33:54.714Z,1021.26
2022-12-02T10:34:53.465Z,1021.26
2022-12-02T10:35:53.861Z,1021.20
2022-12-02T10:37:00.700Z,1021.22
2022-12-02T10:37:53.338Z,1021.21
2022-12-02T10:38:53.506Z,1021.23
2022-12-02T10:41:48.776Z,1021.22
2022-12-02T10:42:36.163Z,1021.25
2022-12-02T10:43:38.586Z,1021.27
2022-12-02T10:44:51.075Z,1021.27
2022-12-02T10:45:31.279Z,1021.25
2022-12-02T10:46:30.469Z,1021.24
2022-12-02T10:47:31.086Z,1021.22
2022-12-02T10:48:30.428Z,1021.25
2022-12-02T10:49:32.501Z,1021.16
2022-12-02T10:50:30.154Z,1021.17
2022-12-02T10:51:32.943Z,1021.19
2022-12-02T10:52:29.877Z,1021.17
2022-12-02T10:53:29.924Z,1021.08
2022-12-02T10:54:31.520Z,1021.05
2022-12-02T10:55:30.801Z,1021.10
2022-12-02T10:56:30.282Z,1021.07
2022-12-02T10:57:34.220Z,1021.06
2022-12-02T10:58:30.449Z,1021.07
2022-12-02T10:59:46.070Z,1021.08
2022-12-02T11:00:30.690Z,1021.06
2022-12-02T11:01:37.485Z,1021.05
2022-12-02T11:02:36.866Z,1021.11
2022-12-02T11:03:31.003Z,1021.06
2022-12-02T11:04:31.412Z,1021.05
2022-12-02T11:05:32.181Z,1021.05
2022-12-02T11:06:31.476Z,1021.05
2022-12-02T11:07:33.726Z,1021.06
2022-12-02T11:08:32.010Z,1021.07
2022-12-02T11:09:40.167Z,1021.08
2022-12-02T11:10:32.920Z,1021.09
2022-12-02T11:11:33.020Z,1021.06
2022-12-02T11:12:32.139Z,1021.04
2022-12-02T11:13:32.788Z,1021.03
2022-12-02T11:14:32.629Z,1021.08
2022-12-02T11:15:32.663Z,1021.08
2022-12-02T11:16:32.902Z,1021.05
2022-12-02T11:17:32.862Z,1021.06
2022-12-02T11:18:33.922Z,1021.07
2022-12-02T11:19:33.098Z,1021.07
2022-12-02T11:20:34.172Z,1021.09
2022-12-02T11:21:34.129Z,1021.07
2022-12-02T11:22:33.725Z,1021.08
2022-12-02T11:23:34.676Z,1021.06
2022-12-02T11:24:35.257Z,1021.10
2022-12-02T11:25:34.772Z,1021.10
2022-12-02T11:26:34.119Z,1021.08
2022-12-02T11:27:34.237Z,1021.09
2022-12-02T11:28:34.517Z,1021.08
2022-12-02T11:29:39.757Z,1021.06
2022-12-02T11:30:34.638Z,1021.07
2022-12-02T11:31:36.327Z,1021.09
2022-12-02T11:32:35.129Z,1021.04
2022-12-02T11:33:37.214Z,1021.04
2022-12-02T11:34:53.938Z,1021.01
2022-12-02T11:35:36.314Z,1021.01
2022-12-02T11:36:35.376Z,1021.01
2022-12-02T11:37:35.452Z,1021.05
2022-12-02T11:38:35.749Z,1020.99
2022-12-02T11:39:36.496Z,1021.03
2022-12-02T11:40:35.861Z,1020.97
2022-12-02T11:41:36.067Z,1021.00
2022-12-02T11:42:36.157Z,1020.97
2022-12-02T11:43:36.520Z,1020.98
2022-12-02T11:44:36.446Z,1021.00
2022-12-02T11:45:37.521Z,1020.98
2022-12-02T11:46:36.687Z,1020.94
2022-12-02T11:47:36.850Z,1020.98
2022-12-02T11:48:37.696Z,1020.95
2022-12-02T11:49:37.104Z,1020.92
2022-12-02T11:50:37.501Z,1020.91
2022-12-02T11:51:37.434Z,1020.90
2022-12-02T11:52:37.548Z,1020.88
2022-12-02T11:53:37.614Z,1020.93
2022-12-02T11:54:37.855Z,1020.90
2022-12-02T11:55:38.057Z,1020.92
2022-12-02T11:56:37.946Z,1020.90
2022-12-02T11:57:38.060Z,1020.91
2022-12-02T11:58:38.653Z,1020.94
2022-12-02T11:59:39.191Z,1020.91
2022-12-02T12:00:38.769Z,1020.89
2022-12-02T12:01:41.416Z,1020.89
2022-12-02T12:02:39.121Z,1020.93
2022-12-02T12:03:40.039Z,1020.91
2022-12-02T12:04:44.712Z,1020.88
2022-12-02T12:05:39.239Z,1020.87
2022-12-02T12:06:39.569Z,1020.95
2022-12-02T12:07:42.407Z,1020.89
2022-12-02T12:08:39.813Z,1020.93
2022-12-02T12:09:43.419Z,1020.88
2022-12-02T12:10:40.684Z,1020.92
2022-12-02T12:11:40.850Z,1020.89
2022-12-02T12:12:40.050Z,1020.87
2022-12-02T12:13:40.404Z,1020.87
2022-12-02T12:14:43.310Z,1020.82
2022-12-02T12:15:41.174Z,1020.93
2022-12-02T12:16:41.439Z,1020.92
2022-12-02T12:17:42.433Z,1020.87
2022-12-02T12:18:41.879Z,1020.83
2022-12-02T12:19:41.051Z,1020.86
2022-12-02T12:20:47.781Z,1020.76
2022-12-02T12:21:41.411Z,1020.79
2022-12-02T12:22:41.755Z,1020.79
2022-12-02T12:23:41.642Z,1020.82
2022-12-02T12:24:41.749Z,1020.80
2022-12-02T12:25:42.124Z,1020.78
2022-12-02T12:26:42.736Z,1020.81
2022-12-02T12:27:43.155Z,1020.85
2022-12-02T12:28:42.339Z,1020.81
2022-12-02T12:29:43.219Z,1020.81
2022-12-02T12:30:42.621Z,1020.76
2022-12-02T12:31:42.759Z,1020.79
2022-12-02T12:32:42.862Z,1020.76
2022-12-02T12:33:42.980Z,1020.76
2022-12-02T12:34:43.054Z,1020.79
2022-12-02T12:35:43.157Z,1020.72
2022-12-02T12:36:43.327Z,1020.80
2022-12-02T12:37:43.587Z,1020.73
2022-12-02T12:38:44.396Z,1020.76
2022-12-02T12:39:43.667Z,1020.75
2022-12-02T12:40:43.777Z,1020.72
2022-12-02T12:42:01.111Z,1020.72
2022-12-02T12:42:45.055Z,1020.66
2022-12-02T12:43:44.317Z,1020.68
2022-12-02T12:44:44.347Z,1020.66
2022-12-02T12:45:44.604Z,1020.64
2022-12-02T12:46:44.656Z,1020.70
2022-12-02T12:47:44.759Z,1020.65
2022-12-02T12:48:44.926Z,1020.66
2022-12-02T12:49:45.092Z,1020.67
2022-12-02T12:50:45.129Z,1020.62
2022-12-02T12:51:45.287Z,1020.63
2022-12-02T12:52:45.445Z,1020.64
2022-12-02T12:53:45.574Z,1020.62
2022-12-02T12:54:45.673Z,1020.61
2022-12-02T12:55:45.767Z,1020.62
2022-12-02T12:56:45.957Z,1020.64
2022-12-02T12:57:46.065Z,1020.62
2022-12-02T12:58:46.184Z,1020.63
2022-12-02T12:59:46.292Z,1020.63
2022-12-02T13:00:46.388Z,1020.65
2022-12-02T13:01:46.615Z,1020.64
2022-12-02T13:02:46.734Z,1020.62
2022-12-02T13:03:46.824Z,1020.62
2022-12-02T13:04:46.934Z,1020.64
2022-12-02T13:05:47.079Z,1020.57
2022-12-02T13:06:47.320Z,1020.64
2022-12-02T13:07:47.365Z,1020.59
2022-12-02T13:08:47.463Z,1020.61
2022-12-02T13:09:47.568Z,1020.59
2022-12-02T13:10:47.723Z,1020.59
2022-12-02T13:11:47.874Z,1020.63
2022-12-02T13:12:48.021Z,1020.56
2022-12-02T13:13:48.214Z,1020.60
2022-12-02T13:14:48.300Z,1020.60
2022-12-02T13:15:48.462Z,1020.53
2022-12-02T13:16:48.678Z,1020.56
2022-12-02T13:17:49.432Z,1020.56
2022-12-02T13:18:48.852Z,1020.53
2022-12-02T13:19:49.030Z,1020.54
2022-12-02T13:20:49.152Z,1020.55
2022-12-02T13:21:49.283Z,1020.56
2022-12-02T13:22:49.377Z,1020.50
2022-12-02T13:23:49.831Z,1020.52
2022-12-02T13:24:49.702Z,1020.48
2022-12-02T13:25:50.647Z,1020.51
2022-12-02T13:26:50.909Z,1020.58
2022-12-02T13:27:51.052Z,1020.55
2022-12-02T13:28:51.123Z,1020.54
2022-12-02T13:29:50.819Z,1020.56
2022-12-02T13:30:50.490Z,1020.53
2022-12-02T13:31:51.347Z,1020.48
2022-12-02T13:32:50.699Z,1020.48
2022-12-02T13:33:50.838Z,1020.54
2022-12-02T13:34:51.355Z,1020.56
2022-12-02T13:35:51.079Z,1020.56
2022-12-02T13:36:51.183Z,1020.50
2022-12-02T13:37:51.359Z,1020.58
2022-12-02T13:38:51.457Z,1020.56
2022-12-02T13:39:51.944Z,1020.62
2022-12-02T13:40:52.409Z,1020.60
2022-12-02T13:41:51.837Z,1020.58
2022-12-02T13:42:51.975Z,1020.61
2022-12-02T13:43:52.109Z,1020.55
2022-12-02T13:44:52.639Z,1020.56
2022-12-02T13:45:52.442Z,1020.56
2022-12-02T13:46:52.583Z,1020.55
2022-12-02T13:47:53.207Z,1020.52
2022-12-02T13:48:53.566Z,1020.64
2022-12-02T13:49:53.152Z,1020.56
2022-12-02T13:50:52.997Z,1020.60
2022-12-02T13:51:53.175Z,1020.53
2022-12-02T13:52:53.305Z,1020.55
2022-12-02T13:53:58.786Z,1020.56
2022-12-02T13:54:54.742Z,1020.63
2022-12-02T13:55:53.636Z,1020.59
2022-12-02T13:56:54.586Z,1020.59
2022-12-02T13:57:54.737Z,1020.65
2022-12-02T13:58:54.898Z,1020.64
2022-12-02T13:59:55.058Z,1020.63
2022-12-02T14:00:54.416Z,1020.67
2022-12-02T14:01:54.434Z,1020.61
2022-12-02T14:02:54.570Z,1020.62
2022-12-02T14:03:54.841Z,1020.61
2022-12-02T14:04:55.027Z,1020.69
2022-12-02T14:05:55.053Z,1020.63
2022-12-02T14:06:55.056Z,1020.63
2022-12-02T14:07:55.300Z,1020.64
2022-12-02T14:08:55.374Z,1020.64
2022-12-02T14:09:55.463Z,1020.68
2022-12-02T14:10:55.624Z,1020.69
2022-12-02T14:11:55.823Z,1020.67
2022-12-02T14:12:56.026Z,1020.61
2022-12-02T14:14:00.024Z,1020.65
2022-12-02T14:14:56.253Z,1020.68
2022-12-02T14:15:56.324Z,1020.68
2022-12-02T14:16:56.385Z,1020.67
2022-12-02T14:17:56.582Z,1020.68
2022-12-02T14:18:57.612Z,1020.68
2022-12-02T14:19:56.852Z,1020.72
2022-12-02T14:20:57.033Z,1020.73
2022-12-02T14:21:57.673Z,1020.70
2022-12-02T14:22:57.372Z,1020.80
2022-12-02T14:23:58.122Z,1020.73
2022-12-02T14:24:57.542Z,1020.73
2022-12-02T14:25:58.461Z,1020.73
2022-12-02T14:26:57.851Z,1020.67
2022-12-02T14:27:57.911Z,1020.68
2022-12-02T14:28:58.062Z,1020.78
2022-12-02T14:29:58.194Z,1020.75
2022-12-02T14:30:58.309Z,1020.78
2022-12-02T14:31:58.547Z,1020.77
2022-12-02T14:32:58.578Z,1020.76
2022-12-02T14:34:14.500Z,1020.81
2022-12-02T14:35:00.650Z,1020.83
2022-12-02T14:35:59.018Z,1020.83
2022-12-02T14:36:59.122Z,1020.80
2022-12-02T14:37:59.278Z,1020.76
2022-12-02T14:38:59.383Z,1020.75
2022-12-02T14:39:59.545Z,1020.76
2022-12-02T14:40:59.650Z,1020.76
2022-12-02T14:41:59.808Z,1020.75
2022-12-02T14:43:00.128Z,1020.78
2022-12-02T14:44:00.080Z,1020.75
2022-12-02T14:45:00.248Z,1020.76
2022-12-02T14:46:00.457Z,1020.83
2022-12-02T14:47:00.617Z,1020.73
2022-12-02T14:48:00.693Z,1020.74
2022-12-02T14:49:30.736Z,1020.75
2022-12-02T14:50:02.056Z,1020.73
2022-12-02T14:51:02.157Z,1020.76
2022-12-02T14:52:01.205Z,1020.70
2022-12-02T14:53:01.358Z,1020.77
2022-12-02T14:54:01.528Z,1020.73
2022-12-02T14:55:01.741Z,1020.71
2022-12-02T14:56:01.788Z,1020.72
2022-12-02T14:57:02.901Z,1020.77
2022-12-02T14:58:02.066Z,1020.70
2022-12-02T14:59:02.229Z,1020.68
2022-12-02T15:00:02.380Z,1020.72
2022-12-02T15:01:02.536Z,1020.73
2022-12-02T15:02:03.770Z,1020.70
2022-12-02T15:03:02.908Z,1020.74
2022-12-02T15:04:02.973Z,1020.69
2022-12-02T15:05:03.181Z,1020.72
2022-12-02T15:06:03.264Z,1020.71
2022-12-02T15:07:03.428Z,1020.79
2022-12-02T15:08:03.658Z,1020.77
2022-12-02T15:09:03.718Z,1020.78
2022-12-02T15:10:03.932Z,1020.77
2022-12-02T15:11:03.978Z,1020.77
2022-12-02T15:12:04.267Z,1020.76
2022-12-02T15:13:04.397Z,1020.78
2022-12-02T15:14:04.373Z,1020.78
2022-12-02T15:15:36.097Z,1020.77
2022-12-02T15:16:05.671Z,1020.75
2022-12-02T15:17:04.763Z,1020.76
2022-12-02T15:18:04.893Z,1020.77
2022-12-02T15:19:05.066Z,1020.80
2022-12-02T15:20:05.152Z,1020.77
2022-12-02T15:21:10.552Z,1020.79
2022-12-02T15:22:06.454Z,1020.70
2022-12-02T15:23:05.603Z,1020.73
2022-12-02T15:24:05.693Z,1020.74
2022-12-02T15:25:05.843Z,1020.72
2022-12-02T15:26:06.014Z,1020.75
2022-12-02T15:27:06.162Z,1020.75
2022-12-02T15:28:06.351Z,1020.82
2022-12-02T15:29:06.400Z,1020.82
2022-12-02T15:30:06.608Z,1020.79
2022-12-02T15:31:06.746Z,1020.77
2022-12-02T15:32:06.820Z,1020.83
2022-12-02T15:33:06.911Z,1020.84
2022-12-02T15:34:07.010Z,1020.80
2022-12-02T15:35:07.162Z,1020.87
2022-12-02T15:36:07.380Z,1020.84
2022-12-02T15:37:07.420Z,1020.80
2022-12-02T15:38:07.589Z,1020.80
2022-12-02T15:39:07.843Z,1020.82
2022-12-02T15:40:07.872Z,1020.79
2022-12-02T15:41:08.069Z,1020.80
2022-12-02T15:42:08.164Z,1020.88
2022-12-02T15:43:08.299Z,1020.83
2022-12-02T15:44:08.488Z,1020.81
2022-12-02T15:45:08.635Z,1020.83
2022-12-02T15:46:08.726Z,1020.82
2022-12-02T15:47:08.917Z,1020.85
2022-12-02T15:48:09.008Z,1020.87
2022-12-02T15:49:09.148Z,1020.85
2022-12-02T15:50:09.296Z,1020.89
2022-12-02T15:51:09.599Z,1020.84
2022-12-02T15:52:09.538Z,1020.88
2022-12-02T15:53:09.682Z,1020.91
2022-12-02T15:54:09.828Z,1020.86
2022-12-02T15:55:09.977Z,1020.86
2022-12-02T15:56:10.110Z,1020.86
2022-12-02T15:57:11.186Z,1020.90
2022-12-02T15:58:10.338Z,1020.87
2022-12-02T15:59:10.488Z,1020.87
2022-12-02T16:00:10.627Z,1020.90
2022-12-02T16:01:10.847Z,1020.91
2022-12-02T16:12:44.597Z,1020.91
2022-12-02T16:13:44.697Z,1020.91
2022-12-02T16:14:44.850Z,1020.92
2022-12-02T16:15:44.957Z,1020.86
2022-12-02T16:16:45.158Z,1020.89
2022-12-02T16:17:46.129Z,1020.89
2022-12-02T16:18:45.339Z,1020.86
2022-12-02T16:19:46.398Z,1020.84
2022-12-02T16:20:46.788Z,1020.89
2022-12-02T16:21:45.685Z,1020.91
2022-12-02T16:22:45.816Z,1020.87
2022-12-02T16:23:45.945Z,1020.90
2022-12-02T16:24:47.055Z,1020.85
2022-12-02T16:25:46.231Z,1020.89
2022-12-02T16:26:50.782Z,1020.83
2022-12-02T16:27:47.467Z,1020.86
2022-12-02T16:28:46.629Z,1020.86
2022-12-02T16:29:46.796Z,1020.86